sensor_id;sensor_type;location;lat;lon;timestamp;temperature;humidity
41457;DHT22;27197;51.752;5.220;2023-07-20T00:01:10;24.60;68.70
41457;DHT22;27197;51.752;5.220;2023-07-20T00:03:40;24.60;68.80
41457;DHT22;27197;51.752;5.220;2023-07-20T00:06:13;24.60;68.70
41457;DHT22;27197;51.752;5.220;2023-07-20T00:08:44;24.60;68.70
41457;DHT22;27197;51.752;5.220;2023-07-20T00:11:15;24.60;68.70
41457;DHT22;27197;51.752;5.220;2023-07-20T00:13:46;24.60;68.70
41457;DHT22;27197;51.752;5.220;2023-07-20T00:16:16;24.60;68.80
41457;DHT22;27197;51.752;5.220;2023-07-20T00:18:47;24.60;68.70
41457;DHT22;27197;51.752;5.220;2023-07-20T00:21:19;24.60;68.70
41457;DHT22;27197;51.752;5.220;2023-07-20T00:23:49;24.60;68.70
41457;DHT22;27197;51.752;5.220;2023-07-20T00:26:19;24.60;68.70
41457;DHT22;27197;51.752;5.220;2023-07-20T00:28:51;24.60;69.40
41457;DHT22;27197;51.752;5.220;2023-07-20T00:31:22;24.50;68.60
41457;DHT22;27197;51.752;5.220;2023-07-20T00:33:56;24.50;68.60
41457;DHT22;27197;51.752;5.220;2023-07-20T00:36:25;24.50;68.50
41457;DHT22;27197;51.752;5.220;2023-07-20T00:39:00;24.50;68.60
41457;DHT22;27197;51.752;5.220;2023-07-20T00:41:29;24.50;68.60
41457;DHT22;27197;51.752;5.220;2023-07-20T00:43:59;24.60;68.60
41457;DHT22;27197;51.752;5.220;2023-07-20T00:46:34;24.60;68.70
41457;DHT22;27197;51.752;5.220;2023-07-20T00:49:05;24.50;68.60
41457;DHT22;27197;51.752;5.220;2023-07-20T00:51:34;24.60;68.60
41457;DHT22;27197;51.752;5.220;2023-07-20T00:54:09;24.60;68.70
41457;DHT22;27197;51.752;5.220;2023-07-20T01:53:36;24.50;69.10
41457;DHT22;27197;51.752;5.220;2023-07-20T01:56:14;24.50;69.10
41457;DHT22;27197;51.752;5.220;2023-07-20T01:58:43;24.50;69.00
41457;DHT22;27197;51.752;5.220;2023-07-20T02:01:15;24.50;68.90
41457;DHT22;27197;51.752;5.220;2023-07-20T02:03:45;24.50;69.00
41457;DHT22;27197;51.752;5.220;2023-07-20T02:06:17;24.50;68.90
41457;DHT22;27197;51.752;5.220;2023-07-20T02:08:47;24.50;68.90
41457;DHT22;27197;51.752;5.220;2023-07-20T02:11:20;24.50;69.10
41457;DHT22;27197;51.752;5.220;2023-07-20T02:13:51;24.40;68.70
41457;DHT22;27197;51.752;5.220;2023-07-20T02:16:22;24.40;68.60
41457;DHT22;27197;51.752;5.220;2023-07-20T02:18:55;24.50;69.30
41457;DHT22;27197;51.752;5.220;2023-07-20T02:21:25;24.40;68.50
41457;DHT22;27197;51.752;5.220;2023-07-20T02:23:59;24.50;68.40
41457;DHT22;27197;51.752;5.220;2023-07-20T02:26:28;24.40;68.40
41457;DHT22;27197;51.752;5.220;2023-07-20T02:28:59;24.50;68.50
41457;DHT22;27197;51.752;5.220;2023-07-20T02:31:33;24.40;68.40
41457;DHT22;27197;51.752;5.220;2023-07-20T02:34:02;24.50;68.50
41457;DHT22;27197;51.752;5.220;2023-07-20T02:36:36;24.50;68.40
41457;DHT22;27197;51.752;5.220;2023-07-20T02:39:07;24.40;68.30
41457;DHT22;27197;51.752;5.220;2023-07-20T02:41:43;24.40;68.30
41457;DHT22;27197;51.752;5.220;2023-07-20T02:44:15;24.40;68.30
41457;DHT22;27197;51.752;5.220;2023-07-20T02:46:47;24.40;68.30
41457;DHT22;27197;51.752;5.220;2023-07-20T02:49:16;24.40;68.20
41457;DHT22;27197;51.752;5.220;2023-07-20T02:51:48;24.40;68.10
41457;DHT22;27197;51.752;5.220;2023-07-20T02:54:18;24.40;68.10
41457;DHT22;27197;51.752;5.220;2023-07-20T02:56:53;24.40;68.20
41457;DHT22;27197;51.752;5.220;2023-07-20T02:59:22;24.40;68.00
41457;DHT22;27197;51.752;5.220;2023-07-20T03:01:57;24.40;68.00
41457;DHT22;27197;51.752;5.220;2023-07-20T03:04:31;24.40;67.90
41457;DHT22;27197;51.752;5.220;2023-07-20T03:06:59;24.40;67.90
41457;DHT22;27197;51.752;5.220;2023-07-20T03:09:31;24.40;68.00
41457;DHT22;27197;51.752;5.220;2023-07-20T03:12:02;24.40;67.80
41457;DHT22;27197;51.752;5.220;2023-07-20T03:14:32;24.40;67.80
41457;DHT22;27197;51.752;5.220;2023-07-20T03:17:03;24.40;67.80
41457;DHT22;27197;51.752;5.220;2023-07-20T03:19:37;24.40;68.50
41457;DHT22;27197;51.752;5.220;2023-07-20T03:22:06;24.40;67.70
41457;DHT22;27197;51.752;5.220;2023-07-20T03:24:38;24.40;67.70
41457;DHT22;27197;51.752;5.220;2023-07-20T03:27:08;24.40;68.30
41457;DHT22;27197;51.752;5.220;2023-07-20T03:29:39;24.30;67.60
41457;DHT22;27197;51.752;5.220;2023-07-20T03:32:08;24.40;67.50
41457;DHT22;27197;51.752;5.220;2023-07-20T03:34:40;24.40;67.50
41457;DHT22;27197;51.752;5.220;2023-07-20T03:37:12;24.40;67.40
41457;DHT22;27197;51.752;5.220;2023-07-20T03:39:47;24.40;67.30
41457;DHT22;27197;51.752;5.220;2023-07-20T03:42:15;24.40;67.20
41457;DHT22;27197;51.752;5.220;2023-07-20T03:44:48;24.40;67.90
41457;DHT22;27197;51.752;5.220;2023-07-20T03:47:17;24.40;67.10
41457;DHT22;27197;51.752;5.220;2023-07-20T03:49:50;24.40;67.10
41457;DHT22;27197;51.752;5.220;2023-07-20T03:52:26;24.40;67.10
41457;DHT22;27197;51.752;5.220;2023-07-20T03:54:56;24.30;67.00
41457;DHT22;27197;51.752;5.220;2023-07-20T03:57:28;24.30;66.90
41457;DHT22;27197;51.752;5.220;2023-07-20T03:59:58;24.30;66.90
41457;DHT22;27197;51.752;5.220;2023-07-20T04:02:30;24.30;66.80
41457;DHT22;27197;51.752;5.220;2023-07-20T04:05:02;24.30;66.80
41457;DHT22;27197;51.752;5.220;2023-07-20T04:07:32;24.30;66.90
41457;DHT22;27197;51.752;5.220;2023-07-20T04:10:05;24.30;66.90
41457;DHT22;27197;51.752;5.220;2023-07-20T04:12:34;24.30;66.80
41457;DHT22;27197;51.752;5.220;2023-07-20T04:15:07;24.30;66.20
41457;DHT22;27197;51.752;5.220;2023-07-20T04:17:41;24.30;66.20
41457;DHT22;27197;51.752;5.220;2023-07-20T04:20:11;24.30;66.30
41457;DHT22;27197;51.752;5.220;2023-07-20T04:22:46;24.30;66.20
41457;DHT22;27197;51.752;5.220;2023-07-20T04:25:15;24.30;66.10
41457;DHT22;27197;51.752;5.220;2023-07-20T04:27:47;24.30;66.00
41457;DHT22;27197;51.752;5.220;2023-07-20T04:30:21;24.30;66.10
41457;DHT22;27197;51.752;5.220;2023-07-20T04:32:54;24.30;66.00
41457;DHT22;27197;51.752;5.220;2023-07-20T04:38:24;24.30;66.10
41457;DHT22;27197;51.752;5.220;2023-07-20T04:40:54;24.30;66.00
41457;DHT22;27197;51.752;5.220;2023-07-20T04:43:29;24.30;65.90
41457;DHT22;27197;51.752;5.220;2023-07-20T04:45:56;24.30;65.90
41457;DHT22;27197;51.752;5.220;2023-07-20T04:48:31;24.30;65.80
41457;DHT22;27197;51.752;5.220;2023-07-20T04:51:04;24.30;65.80
41457;DHT22;27197;51.752;5.220;2023-07-20T04:53:39;24.30;65.80
41457;DHT22;27197;51.752;5.220;2023-07-20T04:56:09;24.30;65.80
41457;DHT22;27197;51.752;5.220;2023-07-20T04:58:41;24.30;66.60
41457;DHT22;27197;51.752;5.220;2023-07-20T05:01:12;24.30;65.90
41457;DHT22;27197;51.752;5.220;2023-07-20T05:03:43;24.30;65.80
41457;DHT22;27197;51.752;5.220;2023-07-20T05:06:14;24.30;65.90
41457;DHT22;27197;51.752;5.220;2023-07-20T05:08:47;24.30;65.80
41457;DHT22;27197;51.752;5.220;2023-07-20T05:11:17;24.30;65.80
41457;DHT22;27197;51.752;5.220;2023-07-20T05:13:50;24.30;65.70
41457;DHT22;27197;51.752;5.220;2023-07-20T05:16:19;24.30;65.80
41457;DHT22;27197;51.752;5.220;2023-07-20T05:18:53;24.20;65.70
41457;DHT22;27197;51.752;5.220;2023-07-20T05:21:22;24.30;65.80
41457;DHT22;27197;51.752;5.220;2023-07-20T05:23:53;24.30;65.80
41457;DHT22;27197;51.752;5.220;2023-07-20T05:26:27;24.30;65.80
41457;DHT22;27197;51.752;5.220;2023-07-20T05:28:56;24.30;66.40
41457;DHT22;27197;51.752;5.220;2023-07-20T05:31:30;24.30;65.70
41457;DHT22;27197;51.752;5.220;2023-07-20T05:33:58;24.30;65.70
41457;DHT22;27197;51.752;5.220;2023-07-20T05:36:29;24.20;65.60
41457;DHT22;27197;51.752;5.220;2023-07-20T05:38:58;24.30;65.80
41457;DHT22;27197;51.752;5.220;2023-07-20T05:41:29;24.30;65.90
41457;DHT22;27197;51.752;5.220;2023-07-20T05:44:03;24.30;65.80
41457;DHT22;27197;51.752;5.220;2023-07-20T05:46:36;24.30;66.50
41457;DHT22;27197;51.752;5.220;2023-07-20T05:49:06;24.30;65.80
41457;DHT22;27197;51.752;5.220;2023-07-20T05:51:39;24.30;65.90
41457;DHT22;27197;51.752;5.220;2023-07-20T05:54:09;24.30;65.80
41457;DHT22;27197;51.752;5.220;2023-07-20T05:56:44;24.30;65.80
41457;DHT22;27197;51.752;5.220;2023-07-20T05:59:13;24.30;65.90
41457;DHT22;27197;51.752;5.220;2023-07-20T06:01:45;24.30;66.00
41457;DHT22;27197;51.752;5.220;2023-07-20T06:04:19;24.30;66.20
41457;DHT22;27197;51.752;5.220;2023-07-20T06:06:51;24.30;66.20
41457;DHT22;27197;51.752;5.220;2023-07-20T06:09:23;24.20;67.40
41457;DHT22;27197;51.752;5.220;2023-07-20T06:11:53;24.30;68.60
41457;DHT22;27197;51.752;5.220;2023-07-20T06:14:27;24.30;70.20
41457;DHT22;27197;51.752;5.220;2023-07-20T06:16:59;24.30;71.20
41457;DHT22;27197;51.752;5.220;2023-07-20T06:19:28;24.30;71.50
41457;DHT22;27197;51.752;5.220;2023-07-20T06:22:00;24.30;68.50
41457;DHT22;27197;51.752;5.220;2023-07-20T06:24:31;24.30;67.90
41457;DHT22;27197;51.752;5.220;2023-07-20T06:27:03;24.20;66.60
41457;DHT22;27197;51.752;5.220;2023-07-20T06:29:33;24.10;67.30
41457;DHT22;27197;51.752;5.220;2023-07-20T06:32:05;24.10;67.00
41457;DHT22;27197;51.752;5.220;2023-07-20T06:34:39;24.00;66.40
41457;DHT22;27197;51.752;5.220;2023-07-20T06:37:14;23.90;66.50
41457;DHT22;27197;51.752;5.220;2023-07-20T06:39:47;23.80;66.70
41457;DHT22;27197;51.752;5.220;2023-07-20T06:42:20;23.80;66.70
41457;DHT22;27197;51.752;5.220;2023-07-20T06:44:49;23.70;66.50
41457;DHT22;27197;51.752;5.220;2023-07-20T06:47:24;23.70;66.60
41457;DHT22;27197;51.752;5.220;2023-07-20T06:49:54;23.60;66.20
41457;DHT22;27197;51.752;5.220;2023-07-20T06:52:30;23.50;66.00
41457;DHT22;27197;51.752;5.220;2023-07-20T06:55:05;23.50;65.80
41457;DHT22;27197;51.752;5.220;2023-07-20T06:57:39;23.40;65.60
41457;DHT22;27197;51.752;5.220;2023-07-20T07:00:09;23.40;65.40
41457;DHT22;27197;51.752;5.220;2023-07-20T07:02:41;23.40;65.50
41457;DHT22;27197;51.752;5.220;2023-07-20T07:05:14;23.40;66.60
41457;DHT22;27197;51.752;5.220;2023-07-20T07:07:43;23.60;67.30
41457;DHT22;27197;51.752;5.220;2023-07-20T07:10:15;23.70;66.90
41457;DHT22;27197;51.752;5.220;2023-07-20T07:12:46;23.80;67.10
41457;DHT22;27197;51.752;5.220;2023-07-20T07:15:18;23.90;65.20
41457;DHT22;27197;51.752;5.220;2023-07-20T07:17:49;23.90;65.60
41457;DHT22;27197;51.752;5.220;2023-07-20T07:20:20;23.90;66.40
41457;DHT22;27197;51.752;5.220;2023-07-20T07:22:52;23.90;66.90
41457;DHT22;27197;51.752;5.220;2023-07-20T07:25:29;23.90;67.00
41457;DHT22;27197;51.752;5.220;2023-07-20T07:28:00;24.00;67.10
41457;DHT22;27197;51.752;5.220;2023-07-20T07:30:28;23.90;67.10
41457;DHT22;27197;51.752;5.220;2023-07-20T07:32:59;24.00;67.30
41457;DHT22;27197;51.752;5.220;2023-07-20T07:35:28;24.00;67.30
41457;DHT22;27197;51.752;5.220;2023-07-20T07:37:59;24.00;67.50
41457;DHT22;27197;51.752;5.220;2023-07-20T07:40:32;24.00;67.70
41457;DHT22;27197;51.752;5.220;2023-07-20T07:43:02;24.00;67.90
41457;DHT22;27197;51.752;5.220;2023-07-20T07:45:37;24.00;68.00
41457;DHT22;27197;51.752;5.220;2023-07-20T07:48:10;24.00;68.50
41457;DHT22;27197;51.752;5.220;2023-07-20T07:50:56;24.00;68.10
41457;DHT22;27197;51.752;5.220;2023-07-20T07:53:25;24.10;68.20
41457;DHT22;27197;51.752;5.220;2023-07-20T07:56:01;24.10;68.10
41457;DHT22;27197;51.752;5.220;2023-07-20T07:58:31;24.00;67.10
41457;DHT22;27197;51.752;5.220;2023-07-20T08:01:01;24.00;66.40
41457;DHT22;27197;51.752;5.220;2023-07-20T08:03:30;23.90;65.60
41457;DHT22;27197;51.752;5.220;2023-07-20T08:06:05;23.90;64.60
41457;DHT22;27197;51.752;5.220;2023-07-20T08:08:33;23.70;64.20
41457;DHT22;27197;51.752;5.220;2023-07-20T08:11:05;23.80;64.70
41457;DHT22;27197;51.752;5.220;2023-07-20T08:13:40;23.80;64.20
41457;DHT22;27197;51.752;5.220;2023-07-20T08:16:11;23.80;64.30
41457;DHT22;27197;51.752;5.220;2023-07-20T08:18:43;23.80;64.50
41457;DHT22;27197;51.752;5.220;2023-07-20T08:21:17;23.70;64.60
41457;DHT22;27197;51.752;5.220;2023-07-20T08:23:49;23.70;64.90
41457;DHT22;27197;51.752;5.220;2023-07-20T08:26:23;23.60;64.90
41457;DHT22;27197;51.752;5.220;2023-07-20T08:28:58;23.60;64.90
41457;DHT22;27197;51.752;5.220;2023-07-20T08:31:28;23.50;64.80
41457;DHT22;27197;51.752;5.220;2023-07-20T08:34:01;23.50;64.90
41457;DHT22;27197;51.752;5.220;2023-07-20T08:36:31;23.50;63.60
41457;DHT22;27197;51.752;5.220;2023-07-20T08:39:06;23.50;64.70
41457;DHT22;27197;51.752;5.220;2023-07-20T08:41:38;23.40;64.20
41457;DHT22;27197;51.752;5.220;2023-07-20T08:44:13;23.40;63.80
41457;DHT22;27197;51.752;5.220;2023-07-20T08:46:46;23.40;64.30
41457;DHT22;27197;51.752;5.220;2023-07-20T08:49:22;23.40;64.20
41457;DHT22;27197;51.752;5.220;2023-07-20T08:51:54;23.40;64.30
41457;DHT22;27197;51.752;5.220;2023-07-20T08:54:27;23.30;64.10
41457;DHT22;27197;51.752;5.220;2023-07-20T08:57:00;23.30;64.00
41457;DHT22;27197;51.752;5.220;2023-07-20T08:59:30;23.40;64.10
41457;DHT22;27197;51.752;5.220;2023-07-20T09:02:06;23.30;64.20
41457;DHT22;27197;51.752;5.220;2023-07-20T09:04:35;23.40;64.00
41457;DHT22;27197;51.752;5.220;2023-07-20T09:07:06;23.30;63.80
41457;DHT22;27197;51.752;5.220;2023-07-20T09:09:40;23.30;63.80
41457;DHT22;27197;51.752;5.220;2023-07-20T09:12:15;23.30;63.70
41457;DHT22;27197;51.752;5.220;2023-07-20T09:14:45;23.30;63.40
41457;DHT22;27197;51.752;5.220;2023-07-20T09:17:19;23.30;63.40
41457;DHT22;27197;51.752;5.220;2023-07-20T09:19:49;23.30;63.20
41457;DHT22;27197;51.752;5.220;2023-07-20T09:22:21;23.30;63.10
41457;DHT22;27197;51.752;5.220;2023-07-20T09:24:55;23.30;63.20
41457;DHT22;27197;51.752;5.220;2023-07-20T09:27:34;23.30;63.10
41457;DHT22;27197;51.752;5.220;2023-07-20T09:30:02;23.20;63.00
41457;DHT22;27197;51.752;5.220;2023-07-20T09:32:44;23.30;63.10
41457;DHT22;27197;51.752;5.220;2023-07-20T09:35:20;23.30;63.00
41457;DHT22;27197;51.752;5.220;2023-07-20T09:38:00;23.20;62.90
41457;DHT22;27197;51.752;5.220;2023-07-20T09:40:28;23.20;62.80
41457;DHT22;27197;51.752;5.220;2023-07-20T09:43:01;23.20;62.80
41457;DHT22;27197;51.752;5.220;2023-07-20T09:45:35;23.20;62.70
41457;DHT22;27197;51.752;5.220;2023-07-20T09:48:07;23.20;62.70
41457;DHT22;27197;51.752;5.220;2023-07-20T09:50:42;23.20;62.70
41457;DHT22;27197;51.752;5.220;2023-07-20T09:53:16;23.20;62.60
41457;DHT22;27197;51.752;5.220;2023-07-20T09:55:51;23.20;62.50
41457;DHT22;27197;51.752;5.220;2023-07-20T09:58:24;23.20;62.40
41457;DHT22;27197;51.752;5.220;2023-07-20T10:00:56;23.20;62.40
41457;DHT22;27197;51.752;5.220;2023-07-20T10:03:28;23.20;62.40
41457;DHT22;27197;51.752;5.220;2023-07-20T10:06:02;23.10;62.20
41457;DHT22;27197;51.752;5.220;2023-07-20T10:08:35;23.20;62.30
41457;DHT22;27197;51.752;5.220;2023-07-20T10:11:07;23.20;62.10
41457;DHT22;27197;51.752;5.220;2023-07-20T10:13:40;23.20;62.20
41457;DHT22;27197;51.752;5.220;2023-07-20T10:16:15;23.20;62.30
41457;DHT22;27197;51.752;5.220;2023-07-20T10:18:56;23.20;62.10
41457;DHT22;27197;51.752;5.220;2023-07-20T10:21:26;23.20;62.10
41457;DHT22;27197;51.752;5.220;2023-07-20T10:23:57;23.10;62.60
41457;DHT22;27197;51.752;5.220;2023-07-20T10:26:30;23.10;62.20
41457;DHT22;27197;51.752;5.220;2023-07-20T10:29:01;23.10;62.10
41457;DHT22;27197;51.752;5.220;2023-07-20T10:31:33;23.10;62.10
41457;DHT22;27197;51.752;5.220;2023-07-20T10:34:04;23.10;62.10
41457;DHT22;27197;51.752;5.220;2023-07-20T10:36:43;23.10;62.10
41457;DHT22;27197;51.752;5.220;2023-07-20T10:39:06;23.10;62.10
41457;DHT22;27197;51.752;5.220;2023-07-20T10:41:39;23.10;62.10
41457;DHT22;27197;51.752;5.220;2023-07-20T10:44:10;23.10;62.10
41457;DHT22;27197;51.752;5.220;2023-07-20T10:46:45;23.10;62.10
41457;DHT22;27197;51.752;5.220;2023-07-20T10:49:17;23.10;62.10
41457;DHT22;27197;51.752;5.220;2023-07-20T10:51:49;23.10;62.00
41457;DHT22;27197;51.752;5.220;2023-07-20T10:54:33;23.10;62.00
41457;DHT22;27197;51.752;5.220;2023-07-20T10:56:49;23.10;62.00
41457;DHT22;27197;51.752;5.220;2023-07-20T11:02:07;23.10;62.00
41457;DHT22;27197;51.752;5.220;2023-07-20T11:04:46;23.10;62.20
41457;DHT22;27197;51.752;5.220;2023-07-20T11:07:35;23.10;62.20
41457;DHT22;27197;51.752;5.220;2023-07-20T11:09:50;23.10;62.00
41457;DHT22;27197;51.752;5.220;2023-07-20T11:12:24;23.10;62.00
41457;DHT22;27197;51.752;5.220;2023-07-20T11:14:57;23.10;62.10
41457;DHT22;27197;51.752;5.220;2023-07-20T11:17:33;23.10;62.00
41457;DHT22;27197;51.752;5.220;2023-07-20T11:20:21;23.10;61.90
41457;DHT22;27197;51.752;5.220;2023-07-20T11:22:54;23.10;61.90
41457;DHT22;27197;51.752;5.220;2023-07-20T11:25:28;23.10;62.00
41457;DHT22;27197;51.752;5.220;2023-07-20T11:27:58;23.10;61.90
41457;DHT22;27197;51.752;5.220;2023-07-20T11:30:35;23.10;61.70
41457;DHT22;27197;51.752;5.220;2023-07-20T11:33:05;23.10;61.80
41457;DHT22;27197;51.752;5.220;2023-07-20T11:35:45;23.10;61.70
41457;DHT22;27197;51.752;5.220;2023-07-20T11:38:21;23.20;61.70
41457;DHT22;27197;51.752;5.220;2023-07-20T11:40:51;23.20;61.60
41457;DHT22;27197;51.752;5.220;2023-07-20T11:43:28;23.20;61.50
41457;DHT22;27197;51.752;5.220;2023-07-20T11:45:58;23.20;61.50
41457;DHT22;27197;51.752;5.220;2023-07-20T11:48:31;23.20;61.40
41457;DHT22;27197;51.752;5.220;2023-07-20T11:51:01;23.20;61.30
41457;DHT22;27197;51.752;5.220;2023-07-20T11:53:35;23.20;61.40
41457;DHT22;27197;51.752;5.220;2023-07-20T11:56:07;23.20;61.30
41457;DHT22;27197;51.752;5.220;2023-07-20T11:58:46;23.20;61.40
41457;DHT22;27197;51.752;5.220;2023-07-20T12:01:21;23.20;61.40
41457;DHT22;27197;51.752;5.220;2023-07-20T12:03:54;23.20;61.30
41457;DHT22;27197;51.752;5.220;2023-07-20T12:06:27;23.20;61.30
41457;DHT22;27197;51.752;5.220;2023-07-20T12:09:02;23.10;61.40
41457;DHT22;27197;51.752;5.220;2023-07-20T12:11:38;23.10;61.20
41457;DHT22;27197;51.752;5.220;2023-07-20T12:14:10;23.20;61.30
41457;DHT22;27197;51.752;5.220;2023-07-20T12:16:44;23.20;61.20
41457;DHT22;27197;51.752;5.220;2023-07-20T12:19:15;23.20;61.20
41457;DHT22;27197;51.752;5.220;2023-07-20T12:21:49;23.10;61.30
41457;DHT22;27197;51.752;5.220;2023-07-20T12:24:20;23.20;62.00
41457;DHT22;27197;51.752;5.220;2023-07-20T12:26:55;23.10;61.10
41457;DHT22;27197;51.752;5.220;2023-07-20T12:29:23;23.20;61.10
41457;DHT22;27197;51.752;5.220;2023-07-20T12:31:53;23.20;60.90
41457;DHT22;27197;51.752;5.220;2023-07-20T12:34:30;23.20;61.10
41457;DHT22;27197;51.752;5.220;2023-07-20T12:37:02;23.10;61.00
41457;DHT22;27197;51.752;5.220;2023-07-20T12:39:37;23.10;60.90
41457;DHT22;27197;51.752;5.220;2023-07-20T12:42:07;23.10;61.00
41457;DHT22;27197;51.752;5.220;2023-07-20T12:44:36;23.10;61.00
41457;DHT22;27197;51.752;5.220;2023-07-20T12:47:11;23.10;61.00
41457;DHT22;27197;51.752;5.220;2023-07-20T12:49:40;23.10;60.90
41457;DHT22;27197;51.752;5.220;2023-07-20T12:52:14;23.10;60.80
41457;DHT22;27197;51.752;5.220;2023-07-20T12:54:44;23.10;61.00
41457;DHT22;27197;51.752;5.220;2023-07-20T12:57:15;23.10;61.00
41457;DHT22;27197;51.752;5.220;2023-07-20T12:59:42;23.10;60.90
41457;DHT22;27197;51.752;5.220;2023-07-20T13:02:15;23.10;60.90
41457;DHT22;27197;51.752;5.220;2023-07-20T13:04:50;23.10;60.90
41457;DHT22;27197;51.752;5.220;2023-07-20T13:07:28;23.10;60.80
41457;DHT22;27197;51.752;5.220;2023-07-20T13:09:52;23.10;60.80
41457;DHT22;27197;51.752;5.220;2023-07-20T13:12:25;23.10;60.90
41457;DHT22;27197;51.752;5.220;2023-07-20T13:14:58;23.10;61.00
41457;DHT22;27197;51.752;5.220;2023-07-20T13:17:29;23.20;61.30
41457;DHT22;27197;51.752;5.220;2023-07-20T13:20:00;23.30;61.50
41457;DHT22;27197;51.752;5.220;2023-07-20T13:22:30;23.40;61.80
41457;DHT22;27197;51.752;5.220;2023-07-20T13:25:03;23.50;61.90
41457;DHT22;27197;51.752;5.220;2023-07-20T13:27:33;23.50;62.00
41457;DHT22;27197;51.752;5.220;2023-07-20T13:30:07;23.50;62.10
41457;DHT22;27197;51.752;5.220;2023-07-20T13:32:38;23.50;62.10
41457;DHT22;27197;51.752;5.220;2023-07-20T13:35:13;23.60;62.20
41457;DHT22;27197;51.752;5.220;2023-07-20T13:37:42;23.60;62.00
41457;DHT22;27197;51.752;5.220;2023-07-20T13:40:15;23.70;62.20
41457;DHT22;27197;51.752;5.220;2023-07-20T13:42:45;23.70;62.20
41457;DHT22;27197;51.752;5.220;2023-07-20T13:45:17;23.70;61.90
41457;DHT22;27197;51.752;5.220;2023-07-20T13:53:14;23.80;62.00
41457;DHT22;27197;51.752;5.220;2023-07-20T13:55:45;23.90;62.50
41457;DHT22;27197;51.752;5.220;2023-07-20T13:58:17;23.90;59.90
41457;DHT22;27197;51.752;5.220;2023-07-20T14:00:52;24.00;60.30
41457;DHT22;27197;51.752;5.220;2023-07-20T15:18:14;24.20;63.10
41457;DHT22;27197;51.752;5.220;2023-07-20T15:59:20;24.30;60.80
41457;DHT22;27197;51.752;5.220;2023-07-20T16:01:48;24.30;60.70
41457;DHT22;27197;51.752;5.220;2023-07-20T16:04:18;24.30;60.60
41457;DHT22;27197;51.752;5.220;2023-07-20T16:06:50;24.30;60.60
41457;DHT22;27197;51.752;5.220;2023-07-20T16:09:20;24.30;60.40
41457;DHT22;27197;51.752;5.220;2023-07-20T16:11:55;24.30;60.40
41457;DHT22;27197;51.752;5.220;2023-07-20T16:14:28;24.30;60.40
41457;DHT22;27197;51.752;5.220;2023-07-20T16:16:58;24.30;60.20
41457;DHT22;27197;51.752;5.220;2023-07-20T16:19:31;24.30;60.00
41457;DHT22;27197;51.752;5.220;2023-07-20T16:22:04;24.30;60.10
41457;DHT22;27197;51.752;5.220;2023-07-20T16:24:36;24.30;60.20
41457;DHT22;27197;51.752;5.220;2023-07-20T16:27:07;24.30;59.90
41457;DHT22;27197;51.752;5.220;2023-07-20T16:29:42;24.30;59.70
41457;DHT22;27197;51.752;5.220;2023-07-20T16:32:15;24.30;59.80
41457;DHT22;27197;51.752;5.220;2023-07-20T16:34:46;24.30;59.80
41457;DHT22;27197;51.752;5.220;2023-07-20T16:37:16;24.30;59.70
41457;DHT22;27197;51.752;5.220;2023-07-20T16:39:50;24.30;59.70
41457;DHT22;27197;51.752;5.220;2023-07-20T16:42:21;24.30;59.70
41457;DHT22;27197;51.752;5.220;2023-07-20T16:44:56;24.30;59.70
41457;DHT22;27197;51.752;5.220;2023-07-20T16:47:24;24.30;59.50
41457;DHT22;27197;51.752;5.220;2023-07-20T16:49:57;24.30;59.70
41457;DHT22;27197;51.752;5.220;2023-07-20T17:31:39;24.20;57.30
41457;DHT22;27197;51.752;5.220;2023-07-20T17:37:01;24.30;57.50
41457;DHT22;27197;51.752;5.220;2023-07-20T17:39:36;24.30;57.90
41457;DHT22;27197;51.752;5.220;2023-07-20T17:42:07;24.30;56.90
41457;DHT22;27197;51.752;5.220;2023-07-20T17:44:40;24.20;56.50
41457;DHT22;27197;51.752;5.220;2023-07-20T17:47:10;24.20;57.40
41457;DHT22;27197;51.752;5.220;2023-07-20T17:49:43;24.20;56.20
41457;DHT22;27197;51.752;5.220;2023-07-20T18:05:04;24.10;55.90
41457;DHT22;27197;51.752;5.220;2023-07-20T18:07:40;24.10;57.40
41457;DHT22;27197;51.752;5.220;2023-07-20T18:10:11;24.10;56.90
41457;DHT22;27197;51.752;5.220;2023-07-20T18:12:41;24.10;56.40
41457;DHT22;27197;51.752;5.220;2023-07-20T18:15:14;24.10;56.20
41457;DHT22;27197;51.752;5.220;2023-07-20T18:17:48;24.10;56.10
41457;DHT22;27197;51.752;5.220;2023-07-20T18:20:27;24.00;55.90
41457;DHT22;27197;51.752;5.220;2023-07-20T18:22:58;24.00;55.70
41457;DHT22;27197;51.752;5.220;2023-07-20T18:25:29;24.00;55.80
41457;DHT22;27197;51.752;5.220;2023-07-20T18:28:05;24.00;55.50
41457;DHT22;27197;51.752;5.220;2023-07-20T18:30:35;24.00;54.50
41457;DHT22;27197;51.752;5.220;2023-07-20T18:33:11;23.90;54.50
41457;DHT22;27197;51.752;5.220;2023-07-20T18:35:41;23.90;55.90
41457;DHT22;27197;51.752;5.220;2023-07-20T18:38:15;23.90;56.00
41457;DHT22;27197;51.752;5.220;2023-07-20T18:40:45;24.00;61.90
41457;DHT22;27197;51.752;5.220;2023-07-20T18:43:19;24.10;62.60
41457;DHT22;27197;51.752;5.220;2023-07-20T18:45:48;24.20;58.80
41457;DHT22;27197;51.752;5.220;2023-07-20T18:48:18;24.20;59.80
41457;DHT22;27197;51.752;5.220;2023-07-20T18:50:47;24.20;62.50
41457;DHT22;27197;51.752;5.220;2023-07-20T18:53:17;24.30;62.80
41457;DHT22;27197;51.752;5.220;2023-07-20T18:55:53;24.20;63.00
41457;DHT22;27197;51.752;5.220;2023-07-20T18:58:22;24.30;62.90
41457;DHT22;27197;51.752;5.220;2023-07-20T19:00:57;24.30;62.90
41457;DHT22;27197;51.752;5.220;2023-07-20T19:03:25;24.30;62.80
41457;DHT22;27197;51.752;5.220;2023-07-20T19:05:59;24.30;62.80
41457;DHT22;27197;51.752;5.220;2023-07-20T19:08:29;24.40;62.80
41457;DHT22;27197;51.752;5.220;2023-07-20T19:11:03;24.40;62.80
41457;DHT22;27197;51.752;5.220;2023-07-20T19:13:32;24.40;62.70
41457;DHT22;27197;51.752;5.220;2023-07-20T19:16:06;24.40;62.80
41457;DHT22;27197;51.752;5.220;2023-07-20T19:18:35;24.40;62.80
41457;DHT22;27197;51.752;5.220;2023-07-20T19:21:08;24.40;62.90
41457;DHT22;27197;51.752;5.220;2023-07-20T19:23:39;24.40;62.80
41457;DHT22;27197;51.752;5.220;2023-07-20T19:26:11;24.40;62.80
41457;DHT22;27197;51.752;5.220;2023-07-20T19:28:42;24.40;62.80
41457;DHT22;27197;51.752;5.220;2023-07-20T19:31:16;24.40;62.70
41457;DHT22;27197;51.752;5.220;2023-07-20T19:33:44;24.40;62.60
41457;DHT22;27197;51.752;5.220;2023-07-20T19:36:19;24.40;62.60
41457;DHT22;27197;51.752;5.220;2023-07-20T19:38:48;24.40;62.50
41457;DHT22;27197;51.752;5.220;2023-07-20T19:41:26;24.40;62.50
41457;DHT22;27197;51.752;5.220;2023-07-20T19:43:55;24.40;62.50
41457;DHT22;27197;51.752;5.220;2023-07-20T19:46:30;24.40;62.30
41457;DHT22;27197;51.752;5.220;2023-07-20T19:48:58;24.40;62.30
41457;DHT22;27197;51.752;5.220;2023-07-20T19:51:32;24.40;62.30
41457;DHT22;27197;51.752;5.220;2023-07-20T19:54:06;24.40;62.30
41457;DHT22;27197;51.752;5.220;2023-07-20T19:56:36;24.50;62.30